Time;durP1;ratioP1;P1;durP2;ratioP2;P2;SDS_P1;SDS_P2;PMS_P1;PMS_P2;Temp;Humidity;BMP_temperature;BMP_pressure;BME280_temperature;BME280_humidity;BME280_pressure;Samples;Min_cycle;Max_cycle;Signal;HPM_P1;HPM_P2
2023/04/02 00:00:34;;;;;;;21.88;14.98;;;;;;;5.33;100.00;101086.31;5072770;28;20020;-76
2023/04/02 00:03:07;;;;;;;22.38;15.68;;;;;;;5.20;100.00;101062.88;5072456;28;20500;-75
2023/04/02 00:05:50;;;;;;;22.15;15.40;;;;;;;5.30;100.00;101084.66;5072499;28;20016;-77
2023/04/02 00:08:23;;;;;;;20.20;14.43;;;;;;;5.08;100.00;101073.56;5072593;28;20142;-76
2023/04/02 00:10:58;;;;;;;20.00;15.27;;;;;;;5.21;100.00;101100.41;5072548;28;20117;-78
2023/04/02 00:13:30;;;;;;;20.38;13.65;;;;;;;5.14;100.00;101101.50;5072439;28;20024;-76
2023/04/02 00:15:57;;;;;;;19.42;14.52;;;;;;;5.07;100.00;101102.59;5072769;28;20036;-77
2023/04/02 00:18:24;;;;;;;19.45;14.15;;;;;;;5.06;100.00;101109.44;5072650;28;20029;-77
2023/04/02 00:20:56;;;;;;;19.42;14.70;;;;;;;4.90;100.00;101092.97;5072496;28;20086;-78
2023/04/02 00:23:22;;;;;;;18.92;14.23;;;;;;;5.00;100.00;101113.94;5072666;28;20104;-77
2023/04/02 00:25:48;;;;;;;19.05;14.20;;;;;;;4.95;100.00;101113.28;5073229;28;20569;-94
2023/04/02 00:28:22;;;;;;;19.70;14.98;;;;;;;4.97;100.00;101132.81;5073946;28;20036;-95
2023/04/02 00:30:50;;;;;;;19.52;14.35;;;;;;;4.98;100.00;101131.06;5074501;28;20466;-94
2023/04/02 00:33:18;;;;;;;19.90;14.60;;;;;;;4.97;100.00;101134.53;5077332;28;20040;-95
2023/04/02 00:35:44;;;;;;;18.75;13.00;;;;;;;4.94;100.00;101134.66;5075677;28;20539;-77
2023/04/02 00:38:21;;;;;;;19.05;14.80;;;;;;;4.90;100.00;101131.34;5073329;28;20106;-78
2023/04/02 00:40:48;;;;;;;19.55;14.77;;;;;;;4.91;100.00;101143.25;5074036;28;20032;-77
2023/04/02 00:43:15;;;;;;;19.85;14.77;;;;;;;4.94;100.00;101150.00;5075282;28;20021;-76
2023/04/02 00:45:49;;;;;;;19.95;15.90;;;;;;;4.93;100.00;101151.72;5086074;28;20009;-88
2023/04/02 00:48:57;;;;;;;22.55;16.27;;;;;;;4.90;100.00;101155.19;5094000;28;20053;-84
2023/04/02 00:51:29;;;;;;;21.40;15.60;;;;;;;4.94;100.00;101160.25;5046815;28;20040;-90
2023/04/02 00:53:57;;;;;;;21.85;16.08;;;;;;;4.88;100.00;101164.66;5047054;28;20173;-89
2023/04/02 00:56:56;;;;;;;20.23;16.15;;;;;;;4.73;100.00;101147.28;5050445;28;20048;-93
2023/04/02 00:59:27;;;;;;;23.27;16.60;;;;;;;4.72;100.00;101144.75;4989984;28;20042;-92
2023/04/02 01:02:00;;;;;;;;;;;;;;;4.85;100.00;101172.44;4989548;28;20051;-79
2023/04/02 01:04:33;;;;;;;19.52;15.00;;;;;;;4.61;100.00;101150.22;4990293;28;19940;-86
2023/04/02 01:07:05;;;;;;;18.73;14.48;;;;;;;4.47;100.00;101130.25;4993604;28;20106;-85
2023/04/02 01:09:33;;;;;;;22.33;15.77;;;;;;;4.79;100.00;101189.72;4976607;28;20555;-79
2023/04/02 01:12:25;;;;;;;21.65;16.00;;;;;;;4.78;100.00;101190.63;4996684;28;20055;-84
2023/04/02 01:15:08;;;;;;;21.83;15.52;;;;;;;4.51;100.00;101164.22;4993771;28;20042;-84
2023/04/02 01:18:17;;;;;;;23.65;16.90;;;;;;;4.47;100.00;101153.25;4993841;28;20022;-82
2023/04/02 01:21:07;;;;;;;20.70;16.15;;;;;;;4.76;100.00;101210.31;4998455;28;20408;-83
2023/04/02 01:24:00;;;;;;;23.23;17.08;;;;;;;4.77;100.00;101217.91;4995226;28;20034;-92
2023/04/02 01:27:00;;;;;;;25.75;18.45;;;;;;;4.73;100.00;101218.09;4992903;28;20070;-81
2023/04/02 01:29:45;;;;;;;22.73;17.53;;;;;;;4.68;100.00;101225.88;5017903;28;20038;-77
2023/04/02 01:32:14;;;;;;;23.08;17.15;;;;;;;4.65;100.00;101231.13;5019413;28;20077;-81
2023/04/02 01:34:43;;;;;;;20.40;16.90;;;;;;;4.63;100.00;101239.72;5045452;28;20036;-79
2023/04/02 01:37:59;;;;;;;22.58;16.90;;;;;;;4.62;100.00;101243.97;5081897;28;20017;-78
2023/04/02 01:40:39;;;;;;;18.65;14.85;;;;;;;4.54;100.00;101236.56;5037668;28;20037;-78
2023/04/02 01:43:27;;;;;;;20.10;15.23;;;;;;;4.50;100.00;101240.09;5033672;28;20041;-77
2023/04/02 01:45:53;;;;;;;18.48;14.95;;;;;;;4.51;100.00;101249.44;5016948;28;20072;-77
2023/04/02 01:48:23;;;;;;;20.48;15.30;;;;;;;4.46;100.00;101246.19;5033265;28;20049;-78
2023/04/02 01:50:51;;;;;;;18.98;13.80;;;;;;;4.49;100.00;101256.31;5033591;28;20115;-79
2023/04/02 01:53:19;;;;;;;17.20;14.10;;;;;;;4.27;100.00;101233.13;5032913;28;20030;-77
2023/04/02 01:55:53;;;;;;;19.33;13.90;;;;;;;4.51;100.00;101271.63;5032760;28;20407;-78
2023/04/02 01:58:24;;;;;;;17.52;13.23;;;;;;;4.52;100.00;101276.72;5032792;28;20032;-77
2023/04/02 02:00:58;;;;;;;19.85;14.65;;;;;;;4.48;100.00;101270.00;5016442;28;20037;-78
2023/04/02 02:03:24;;;;;;;16.48;12.98;;;;;;;4.56;100.00;101292.78;5032764;28;20030;-83
2023/04/02 02:05:50;;;;;;;15.00;10.52;;;;;;;4.54;100.00;101290.28;5032555;28;20560;-78
2023/04/02 02:08:38;;;;;;;15.65;11.25;;;;;;;4.51;100.00;101292.06;5032690;28;20049;-77
2023/04/02 02:11:05;;;;;;;11.70;9.48;;;;;;;4.43;100.00;101286.38;5031981;28;20104;-77
2023/04/02 02:13:31;;;;;;;12.60;10.02;;;;;;;4.31;100.00;101275.59;5042421;28;20894;-77
2023/04/02 02:16:02;;;;;;;13.45;10.43;;;;;;;4.27;100.00;101270.66;5074309;28;20032;-81
2023/04/02 02:18:28;;;;;;;13.82;10.38;;;;;;;4.46;100.00;101305.00;5074552;28;20036;-77
2023/04/02 02:20:56;;;;;;;13.25;9.93;;;;;;;4.30;100.00;101279.06;5074318;28;20050;-77
2023/04/02 02:23:22;;;;;;;13.70;10.25;;;;;;;4.49;100.00;101315.13;5074427;28;20031;-77
2023/04/02 02:25:48;;;;;;;13.45;10.48;;;;;;;4.43;100.00;101305.13;5073991;28;20021;-79
2023/04/02 02:28:36;;;;;;;12.65;10.27;;;;;;;4.13;100.00;101265.09;5074242;28;20032;-77
2023/04/02 02:31:06;;;;;;;14.00;11.18;;;;;;;4.57;100.00;101323.44;5074495;28;20028;-79
2023/04/02 02:33:43;;;;;;;16.70;11.60;;;;;;;4.50;100.00;101310.88;5074260;28;20031;-78
2023/04/02 02:36:27;;;;;;;15.35;12.00;;;;;;;4.63;100.00;101337.75;5073168;28;20029;-82
2023/04/02 02:39:04;;;;;;;17.58;12.63;;;;;;;4.62;100.00;101341.19;5074032;28;20032;-76
2023/04/02 02:41:40;;;;;;;16.05;12.57;;;;;;;4.59;100.00;101346.41;5073496;28;20076;-76
2023/04/02 02:44:16;;;;;;;14.98;12.13;;;;;;;4.58;100.00;101352.41;5074043;28;20028;-76
2023/04/02 02:46:48;;;;;;;14.25;12.15;;;;;;;4.49;100.00;101345.81;5073847;28;20086;-75
2023/04/02 02:49:18;;;;;;;15.05;11.52;;;;;;;4.39;100.00;101331.63;5074175;28;20025;-80
2023/04/02 02:51:52;;;;;;;14.77;12.10;;;;;;;4.37;100.00;101340.25;5073705;28;20032;-77
2023/04/02 02:54:19;;;;;;;15.13;11.73;;;;;;;4.41;100.00;101357.16;5073803;28;20469;-77
2023/04/02 02:56:51;;;;;;;16.08;12.32;;;;;;;4.52;100.00;101376.44;5072169;28;20114;-76
2023/04/02 02:59:19;;;;;;;16.70;13.65;;;;;;;4.51;100.00;101384.13;5073546;28;20035;-76
2023/04/02 03:01:46;;;;;;;14.40;11.95;;;;;;;4.29;100.00;101348.97;5073419;28;20036;-76
2023/04/02 03:04:12;;;;;;;15.15;11.93;;;;;;;4.41;100.00;101377.63;5073607;28;20089;-78
2023/04/02 03:06:39;;;;;;;15.95;12.23;;;;;;;4.16;100.00;101329.75;5073496;28;20024;-80
2023/04/02 03:09:35;;;;;;;13.57;11.13;;;;;;;4.48;100.00;101391.91;5073591;28;20048;-78
2023/04/02 03:12:26;;;;;;;15.55;12.00;;;;;;;4.37;100.00;101381.16;5072985;28;20032;-78
2023/04/02 03:15:18;;;;;;;15.13;12.05;;;;;;;4.46;100.00;101409.03;5073509;28;20021;-77
2023/04/02 03:17:53;;;;;;;15.82;12.13;;;;;;;4.44;100.00;101405.69;5073274;28;20044;-76
2023/04/02 03:20:45;;;;;;;15.57;11.73;;;;;;;4.26;100.00;101395.06;5072955;28;20048;-77
2023/04/02 03:23:26;;;;;;;13.52;11.13;;;;;;;4.34;100.00;101423.00;5071465;28;20040;-78
2023/04/02 03:26:00;;;;;;;14.60;11.73;;;;;;;4.32;100.00;101429.84;5072458;28;20024;-77
2023/04/02 03:28:32;;;;;;;15.38;11.48;;;;;;;3.99;100.00;101390.72;5072876;28;20063;-77
2023/04/02 03:31:00;;;;;;;15.73;10.82;;;;;;;4.11;100.00;101425.31;5072976;28;20105;-79
2023/04/02 03:33:38;;;;;;;13.45;10.38;;;;;;;4.23;100.00;101461.63;5072984;28;20023;-78
2023/04/02 03:36:32;;;;;;;15.57;10.57;;;;;;;4.20;100.00;101465.97;5072893;28;20465;-78
2023/04/02 03:39:08;;;;;;;14.25;10.20;;;;;;;4.21;100.00;101471.03;5072939;28;20060;-81
2023/04/02 03:41:44;;;;;;;14.77;10.50;;;;;;;4.20;100.00;101473.63;5072661;28;20036;-79
2023/04/02 03:44:37;;;;;;;14.60;10.88;;;;;;;4.18;100.00;101481.34;5073003;28;20047;-78
2023/04/02 03:47:13;;;;;;;13.52;9.98;;;;;;;4.18;100.00;101483.06;5072506;28;20144;-79
2023/04/02 03:50:05;;;;;;;13.70;9.95;;;;;;;3.81;100.00;101435.44;5072778;28;20036;-80
2023/04/02 03:52:35;;;;;;;13.93;10.93;;;;;;;4.03;100.00;101480.06;5072811;28;20385;-81
2023/04/02 03:55:08;;;;;;;13.25;10.80;;;;;;;4.08;100.00;101487.59;5072782;28;20496;-78
2023/04/02 03:57:40;;;;;;;13.18;9.85;;;;;;;4.16;100.00;101495.91;5072675;28;20111;-79
2023/04/02 04:00:15;;;;;;;14.80;10.05;;;;;;;4.17;100.00;101515.47;5072597;28;20344;-80
2023/04/02 04:02:51;;;;;;;13.38;10.95;;;;;;;4.10;100.00;101503.72;5088187;28;20115;-81
2023/04/02 04:05:25;;;;;;;14.05;10.77;;;;;;;4.22;100.00;101521.28;5072835;28;20020;-77
2023/04/02 04:07:54;;;;;;;16.05;11.05;;;;;;;4.23;100.00;101525.56;5072508;28;20036;-80
2023/04/02 04:10:24;;;;;;;14.75;10.80;;;;;;;3.88;100.00;101466.81;5072657;28;20488;-79
2023/04/02 04:12:53;;;;;;;14.13;11.13;;;;;;;4.08;100.00;101505.47;5072309;28;20056;-78
2023/04/02 04:15:35;;;;;;;17.30;11.95;;;;;;;4.25;100.00;101539.13;5072480;28;20028;-78
2023/04/02 04:18:33;;;;;;;16.08;12.05;;;;;;;4.25;100.00;101536.56;5072585;28;20546;-79
2023/04/02 04:21:02;;;;;;;16.45;12.85;;;;;;;4.22;100.00;101551.13;5072346;28;20432;-79
2023/04/02 04:23:34;;;;;;;14.30;11.35;;;;;;;4.19;100.00;101562.28;5072478;28;20025;-78
2023/04/02 04:26:09;;;;;;;14.95;12.20;;;;;;;4.06;100.00;101550.69;5073361;28;20354;-93
2023/04/02 04:28:56;;;;;;;13.10;10.48;;;;;;;3.93;100.00;101551.84;5073206;28;20370;-94
2023/04/02 04:31:38;;;;;;;12.75;10.30;;;;;;;4.07;100.00;101577.91;5073500;28;20021;-92
2023/04/02 04:34:15;;;;;;;13.43;10.70;;;;;;;3.93;100.00;101570.59;5072864;28;20085;-94
2023/04/02 04:37:00;;;;;;;11.57;9.43;;;;;;;3.99;100.00;101595.13;5072904;28;20017;-93
2023/04/02 04:39:49;;;;;;;11.07;8.40;;;;;;;3.96;100.00;101606.28;5077029;28;20073;-91
2023/04/02 04:42:31;;;;;;;10.82;8.40;;;;;;;3.78;100.00;101582.88;5092249;28;20382;-93
2023/04/02 04:45:21;;;;;;;12.57;8.90;;;;;;;3.91;100.00;101618.31;5078550;28;20040;-93
2023/04/02 04:47:52;;;;;;;12.32;7.95;;;;;;;3.78;100.00;101606.69;5077147;28;20059;-93
2023/04/02 04:50:33;;;;;;;11.35;8.30;;;;;;;3.79;100.00;101627.97;5076524;28;20461;-92
2023/04/02 04:53:06;;;;;;;13.30;9.30;;;;;;;3.55;100.00;101589.34;5076885;28;20028;-92
2023/04/02 04:55:41;;;;;;;14.25;9.68;;;;;;;3.74;100.00;101625.53;5078345;28;20025;-81
2023/04/02 04:58:20;;;;;;;12.88;9.77;;;;;;;3.73;100.00;101640.00;5078165;28;20048;-81
2023/04/02 05:00:57;;;;;;;13.85;9.55;;;;;;;3.74;100.00;101639.16;5076461;28;20021;-81
2023/04/02 05:03:54;;;;;;;14.85;9.98;;;;;;;3.74;100.00;101645.97;5076730;28;20032;-78
2023/04/02 05:06:29;;;;;;;14.63;10.15;;;;;;;3.75;100.00;101647.66;5055356;28;20033;-82
2023/04/02 05:08:59;;;;;;;13.77;10.60;;;;;;;3.71;100.00;101657.06;5054965;28;20044;-78
2023/04/02 05:11:36;;;;;;;13.32;9.68;;;;;;;3.58;100.00;101647.16;5054406;28;20033;-78
2023/04/02 05:14:12;;;;;;;15.48;9.65;;;;;;;3.53;100.00;101638.72;5054126;28;20035;-78
2023/04/02 05:16:50;;;;;;;13.13;9.45;;;;;;;3.71;100.00;101684.31;5054237;28;20041;-82
2023/04/02 05:19:31;;;;;;;12.52;9.23;;;;;;;3.69;100.00;101678.41;5054307;28;20411;-78
2023/04/02 05:22:11;;;;;;;14.13;9.38;;;;;;;3.50;100.00;101654.97;5054323;28;20049;-80
2023/04/02 05:24:43;;;;;;;13.18;9.30;;;;;;;3.69;100.00;101680.97;5054356;28;20106;-79
2023/04/02 05:27:20;;;;;;;12.80;9.32;;;;;;;3.70;100.00;101687.75;5054554;28;20025;-79
2023/04/02 05:29:53;;;;;;;11.93;9.63;;;;;;;3.50;100.00;101659.22;5054061;28;20056;-79
2023/04/02 05:32:26;;;;;;;13.38;9.77;;;;;;;3.41;100.00;101650.03;5053811;28;21052;-78
2023/04/02 05:34:54;;;;;;;16.05;10.10;;;;;;;3.68;100.00;101697.16;5053938;28;20056;-79
2023/04/02 05:37:23;;;;;;;12.43;9.80;;;;;;;3.69;100.00;101702.25;5054840;28;20037;-81
2023/04/02 05:39:54;;;;;;;14.23;10.23;;;;;;;3.70;100.00;101706.47;5054444;28;20445;-78
2023/04/02 05:47:30;;;;;;;17.25;13.85;;;;;;;3.65;100.00;101713.41;5033647;28;20046;-80
2023/04/02 05:50:08;;;;;;;14.75;12.43;;;;;;;3.69;100.00;101727.78;5035136;28;20037;-79
2023/04/02 05:52:55;;;;;;;15.55;12.60;;;;;;;3.42;100.00;101695.13;5035832;28;20086;-79
2023/04/02 05:55:31;;;;;;;15.77;12.43;;;;;;;3.60;100.00;101739.91;5035058;28;20029;-78
2023/04/02 05:58:12;;;;;;;16.45;11.52;;;;;;;3.47;100.00;101734.19;5034365;28;20025;-79
2023/04/02 06:00:38;;;;;;;15.95;12.05;;;;;;;3.53;100.00;101757.03;5035005;28;20478;-79
2023/04/02 06:03:14;;;;;;;14.98;11.82;;;;;;;3.48;100.00;101746.09;5034953;28;20037;-81
2023/04/02 06:05:44;;;;;;;16.33;12.15;;;;;;;3.36;100.00;101751.44;5034729;28;20022;-78
2023/04/02 06:08:19;;;;;;;14.95;11.43;;;;;;;3.44;100.00;101765.75;5034712;28;20017;-78
2023/04/02 06:11:05;;;;;;;16.27;12.05;;;;;;;3.42;100.00;101769.16;5034745;28;20030;-81
2023/04/02 06:13:31;;;;;;;14.88;10.80;;;;;;;3.13;100.00;101726.28;5034577;28;20018;-81
2023/04/02 06:15:56;;;;;;;15.23;11.05;;;;;;;3.57;100.00;101788.50;5034798;28;20487;-79
2023/04/02 06:18:24;;;;;;;14.63;10.07;;;;;;;3.45;100.00;101790.41;5034912;28;20545;-78
2023/04/02 06:20:50;;;;;;;13.07;9.32;;;;;;;3.52;100.00;101819.19;5034820;28;20036;-78
2023/04/02 06:23:40;;;;;;;13.13;10.27;;;;;;;3.52;100.00;101810.69;5034741;28;20029;-79
2023/04/02 06:26:23;;;;;;;12.18;8.57;;;;;;;3.41;100.00;101813.44;5034398;28;20172;-78
2023/04/02 06:29:18;;;;;;;13.95;9.38;;;;;;;3.45;100.00;101827.88;5034159;28;20032;-79
2023/04/02 06:31:51;;;;;;;11.82;8.15;;;;;;;3.39;100.00;101825.41;5033964;28;20045;-85
2023/04/02 06:34:21;;;;;;;11.82;8.23;;;;;;;3.27;100.00;101806.03;5016362;28;20441;-79
2023/04/02 06:36:47;;;;;;;10.98;7.78;;;;;;;3.02;100.00;101769.88;5018298;28;20018;-78
2023/04/02 06:39:21;;;;;;;12.45;7.25;;;;;;;3.36;100.00;101843.34;5014803;28;20044;-77
2023/04/02 06:41:58;;;;;;;11.82;8.10;;;;;;;3.32;100.00;101832.31;5014153;28;20072;-77
2023/04/02 06:44:26;;;;;;;11.70;7.70;;;;;;;3.40;100.00;101840.69;5013866;28;20124;-76
2023/04/02 06:46:59;;;;;;;11.13;7.90;;;;;;;3.48;100.00;101852.50;5013864;28;20567;-75
2023/04/02 06:49:33;;;;;;;9.80;7.35;;;;;;;3.41;100.00;101841.53;5014046;28;20081;-78
2023/04/02 06:52:01;;;;;;;11.93;7.30;;;;;;;3.33;100.00;101831.44;5014002;28;20025;-77
2023/04/02 06:54:26;;;;;;;10.35;7.10;;;;;;;3.36;100.00;101856.94;5013934;28;20018;-79
2023/04/02 06:56:55;;;;;;;10.73;6.88;;;;;;;3.48;100.00;101883.13;5013820;28;20029;-77
2023/04/02 06:59:20;;;;;;;9.48;6.18;;;;;;;3.28;100.00;101863.88;5014013;28;20025;-80
2023/04/02 07:01:56;;;;;;;10.63;6.65;;;;;;;3.32;100.00;101883.38;5014126;28;20386;-81
2023/04/02 07:04:22;;;;;;;8.90;5.53;;;;;;;3.40;100.00;101898.56;5014065;28;20018;-80
2023/04/02 07:06:47;;;;;;;8.88;5.80;;;;;;;3.31;100.00;101912.31;5014162;28;20112;-83
2023/04/02 07:09:13;;;;;;;9.00;5.55;;;;;;;2.41;99.99;101780.16;5013950;28;20014;-78
2023/04/02 07:11:39;;;;;;;8.52;5.18;;;;;;;3.20;100.00;101923.56;5013523;28;20080;-78
2023/04/02 07:14:04;;;;;;;8.27;4.80;;;;;;;3.21;100.00;101927.81;5013609;28;20029;-77
2023/04/02 07:16:32;;;;;;;8.20;5.13;;;;;;;3.24;100.00;101933.69;5013519;28;20520;-80
2023/04/02 07:18:58;;;;;;;8.88;5.25;;;;;;;3.27;100.00;101938.78;5013469;28;20053;-78
2023/04/02 07:21:30;;;;;;;6.93;4.50;;;;;;;3.13;98.52;101928.75;5013569;28;20033;-76
2023/04/02 07:23:55;;;;;;;;;;;;;;;3.30;100.00;101956.59;5013566;28;20045;-81
2023/04/02 07:26:24;;;;;;;11.73;4.85;;;;;;;3.16;98.90;101931.28;5013648;28;19964;-79
2023/04/02 07:28:49;;;;;;;8.60;5.03;;;;;;;3.35;98.38;101969.31;4995728;28;20266;-80
2023/04/02 07:31:17;;;;;;;9.30;4.90;;;;;;;3.39;97.89;101971.78;5013590;28;20128;-79
2023/04/02 07:33:43;;;;;;;8.40;4.57;;;;;;;3.38;96.26;101966.69;5013336;28;20033;-79
2023/04/02 07:36:14;;;;;;;10.32;4.00;;;;;;;3.16;96.47;101953.41;5013196;28;20386;-77
2023/04/02 07:38:39;;;;;;;8.02;4.30;;;;;;;3.34;97.54;101985.47;5012959;28;20022;-77
2023/04/02 07:41:05;;;;;;;8.43;4.35;;;;;;;3.21;98.26;101955.88;5013211;28;20028;-78
2023/04/02 07:43:31;;;;;;;9.57;4.32;;;;;;;3.39;97.65;101994.75;5013460;28;20060;-77
2023/04/02 07:45:56;;;;;;;6.50;3.90;;;;;;;2.94;96.57;101906.06;5012746;28;20499;-79
2023/04/02 07:48:22;;;;;;;8.05;4.05;;;;;;;3.59;98.19;101984.25;5013186;28;20109;-77
2023/04/02 07:50:47;;;;;;;7.80;3.53;;;;;;;3.67;96.10;102000.28;4994970;28;20487;-75
2023/04/02 07:53:31;;;;;;;8.20;3.92;;;;;;;3.47;94.69;101969.13;5012926;28;20061;-74
2023/04/02 07:56:00;;;;;;;8.55;4.03;;;;;;;3.56;93.88;101997.06;5013156;28;20525;-77
2023/04/02 07:58:26;;;;;;;8.23;4.03;;;;;;;3.53;93.49;101989.44;5012905;28;20108;-75
2023/04/02 08:00:51;;;;;;;7.43;3.92;;;;;;;3.73;96.31;102007.00;5012800;28;20109;-75
2023/04/02 08:03:17;;;;;;;8.00;3.35;;;;;;;3.72;94.52;102020.66;5012934;28;20100;-77
2023/04/02 08:05:42;;;;;;;6.60;3.00;;;;;;;3.57;93.90;101991.09;5012684;28;20030;-75
2023/04/02 08:08:08;;;;;;;6.25;3.25;;;;;;;3.78;93.88;102019.72;5012729;28;20029;-76
2023/04/02 08:10:33;;;;;;;8.55;3.33;;;;;;;3.96;94.47;102019.44;5013061;28;20036;-75
2023/04/02 08:12:58;;;;;;;5.95;3.10;;;;;;;4.16;93.00;102027.59;5012412;28;20022;-73
2023/04/02 08:15:24;;;;;;;7.35;2.90;;;;;;;4.08;92.17;102010.72;5012811;28;20026;-74
2023/04/02 08:17:50;;;;;;;5.35;2.63;;;;;;;4.22;91.01;102040.25;5012712;28;20018;-74
2023/04/02 08:20:20;;;;;;;4.65;2.95;;;;;;;4.11;90.25;102036.22;5012865;28;20476;-75
2023/04/02 08:22:46;;;;;;;6.20;2.60;;;;;;;4.21;89.69;102063.31;5014992;28;20025;-92
2023/04/02 08:25:12;;;;;;;7.75;3.35;;;;;;;4.03;90.18;102052.53;5021120;28;20231;-89
2023/04/02 08:27:38;;;;;;;5.35;2.45;;;;;;;3.98;90.17;102067.09;5019938;28;20549;-91
2023/04/02 08:30:05;;;;;;;5.35;2.75;;;;;;;4.00;91.54;102056.84;5023510;28;20104;-91
2023/04/02 08:32:30;;;;;;;5.57;3.20;;;;;;;4.06;90.91;102061.84;5024829;28;20029;-93
2023/04/02 08:34:56;;;;;;;6.95;2.70;;;;;;;4.10;89.63;102071.16;5021612;28;20026;-92
2023/04/02 08:37:21;;;;;;;6.85;2.97;;;;;;;3.78;89.98;102033.34;5018186;28;20062;-90
2023/04/02 08:39:47;;;;;;;5.70;2.78;;;;;;;3.99;90.27;102083.25;5012878;28;20034;-88
2023/04/02 08:42:28;;;;;;;7.63;2.95;;;;;;;4.03;90.02;102090.00;4995282;28;20034;-87
2023/04/02 08:45:06;;;;;;;4.97;2.58;;;;;;;3.90;90.56;102068.91;5012888;28;20022;-82
2023/04/02 08:47:39;;;;;;;7.70;2.60;;;;;;;4.02;90.74;102109.59;5012540;28;20065;-88
2023/04/02 08:50:32;;;;;;;7.25;2.53;;;;;;;4.20;92.44;102120.44;5012795;28;20201;-88
2023/04/02 08:53:01;;;;;;;8.13;2.80;;;;;;;4.11;89.21;102112.91;5001484;28;20042;-87
2023/04/02 08:56:02;;;;;;;7.90;2.88;;;;;;;4.10;90.57;102124.84;5012846;28;20368;-84
2023/04/02 08:58:41;;;;;;;5.38;2.70;;;;;;;4.08;90.92;102118.91;5012294;28;20034;-87
2023/04/02 09:01:27;;;;;;;6.72;2.80;;;;;;;4.14;91.24;102134.16;5012572;28;20352;-81
2023/04/02 09:03:56;;;;;;;7.10;3.10;;;;;;;4.08;92.14;102112.94;5012427;28;20036;-83
2023/04/02 09:06:22;;;;;;;6.55;2.90;;;;;;;4.10;89.73;102118.88;5046459;28;20059;-87
2023/04/02 09:08:50;;;;;;;8.70;3.40;;;;;;;4.26;89.05;102143.34;5031280;28;20050;-84
2023/04/02 09:11:34;;;;;;;5.40;2.90;;;;;;;4.32;89.78;102151.75;5013462;28;20036;-85
2023/04/02 09:14:04;;;;;;;8.20;2.90;;;;;;;4.25;88.50;102157.00;5013210;28;20033;-74
2023/04/02 09:16:42;;;;;;;7.20;2.90;;;;;;;4.25;88.66;102160.41;5012013;28;20559;-75
2023/04/02 09:19:17;;;;;;;8.43;3.10;;;;;;;4.31;90.10;102172.22;5012216;28;20446;-74
2023/04/02 09:22:06;;;;;;;7.18;2.78;;;;;;;4.34;88.99;102163.69;5012111;28;20384;-73
2023/04/02 09:24:32;;;;;;;7.80;2.97;;;;;;;4.17;89.39;102169.06;5012657;28;20049;-77
2023/04/02 09:26:58;;;;;;;6.45;3.03;;;;;;;4.14;89.10;102176.78;5019299;28;20026;-73
2023/04/02 09:29:43;;;;;;;7.47;3.30;;;;;;;4.11;91.35;102185.31;5017935;28;20128;-75
2023/04/02 09:32:35;;;;;;;8.63;3.72;;;;;;;4.11;90.02;102198.09;5028303;28;20025;-72
2023/04/02 09:35:07;;;;;;;;;;;;;;;4.14;90.93;102194.69;5022894;28;20413;-75
2023/04/02 09:37:32;;;;;;;6.10;2.83;;;;;;;4.07;90.26;102199.03;5025057;28;19913;-77
2023/04/02 09:40:27;;;;;;;8.27;3.00;;;;;;;4.08;90.09;102210.94;5023504;28;20088;-75
2023/04/02 09:43:12;;;;;;;7.93;3.10;;;;;;;4.03;91.59;102212.69;5022397;28;20534;-76
2023/04/02 09:45:40;;;;;;;5.90;2.97;;;;;;;3.99;91.28;102219.56;5015140;28;20070;-76
2023/04/02 09:48:23;;;;;;;6.88;3.30;;;;;;;3.98;90.94;102219.59;5015476;28;20060;-75
2023/04/02 09:50:48;;;;;;;5.90;3.38;;;;;;;3.96;92.01;102201.72;5015139;28;20057;-76
2023/04/02 09:53:33;;;;;;;5.40;2.85;;;;;;;4.19;91.63;102229.50;5014973;28;20045;-75
2023/04/02 09:56:12;;;;;;;7.38;3.80;;;;;;;4.15;90.83;102235.56;5014888;28;20065;-76
2023/04/02 09:58:39;;;;;;;6.22;2.58;;;;;;;4.09;89.67;102240.75;5014785;28;20120;-77
2023/04/02 10:01:09;;;;;;;8.00;2.78;;;;;;;4.07;91.14;102241.63;5014792;28;20026;-75
2023/04/02 10:03:35;;;;;;;5.15;2.63;;;;;;;4.13;91.88;102247.53;5013607;28;20160;-75
2023/04/02 10:06:14;;;;;;;7.28;3.13;;;;;;;4.26;90.82;102243.91;5014750;28;20064;-75
2023/04/02 10:08:42;;;;;;;4.75;2.60;;;;;;;4.39;89.74;102259.91;5014569;28;20030;-75
2023/04/02 10:11:12;;;;;;;5.05;2.83;;;;;;;4.38;88.49;102259.94;5014792;28;20030;-76
2023/04/02 10:13:52;;;;;;;4.07;2.53;;;;;;;4.41;89.77;102236.88;5014784;28;20123;-84
2023/04/02 10:16:47;;;;;;;7.20;2.75;;;;;;;4.55;87.97;102252.88;5014318;28;20030;-81
2023/04/02 10:19:33;;;;;;;7.13;2.55;;;;;;;4.56;88.13;102246.91;4935276;29;20071;-86
2023/04/02 10:22:04;;;;;;;8.63;3.42;;;;;;;4.75;86.32;102270.47;4935195;29;20035;-84
2023/04/02 10:24:29;;;;;;;7.03;3.00;;;;;;;4.70;87.12;102247.50;4934878;29;20043;-77
2023/04/02 10:27:08;;;;;;;7.25;3.17;;;;;;;4.87;87.49;102272.84;4934898;29;20268;-85
2023/04/02 10:30:01;;;;;;;7.90;3.15;;;;;;;4.84;85.52;102254.97;4935095;29;20039;-86
2023/04/02 10:32:34;;;;;;;7.85;3.05;;;;;;;4.99;84.18;102264.94;4934896;29;20044;-80
2023/04/02 10:35:07;;;;;;;5.93;3.28;;;;;;;5.05;83.87;102269.13;4953123;28;20058;-85
2023/04/02 10:37:35;;;;;;;4.75;2.75;;;;;;;5.14;83.75;102272.38;4953946;28;20047;-87
2023/04/02 10:40:13;;;;;;;6.00;2.70;;;;;;;5.10;84.33;102270.72;4953967;28;20042;-88
2023/04/02 10:42:47;;;;;;;5.03;2.80;;;;;;;5.17;82.97;102281.72;4953882;28;20089;-86
2023/04/02 10:45:53;;;;;;;5.85;3.75;;;;;;;5.37;83.82;102301.88;4953803;29;20034;-87
2023/04/02 10:49:02;;;;;;;6.05;3.00;;;;;;;5.43;83.14;102299.22;4953641;28;20147;-87
2023/04/02 10:51:33;;;;;;;7.28;3.20;;;;;;;5.47;81.97;102300.81;4915714;29;20063;-87
2023/04/02 10:54:37;;;;;;;8.00;3.15;;;;;;;5.71;84.01;102299.53;4915406;29;20038;-86
2023/04/02 10:57:13;;;;;;;6.50;3.22;;;;;;;5.89;82.99;102306.84;4947351;29;20039;-85
2023/04/02 10:59:52;;;;;;;7.43;3.03;;;;;;;5.98;81.34;102299.00;4953383;29;20507;-81
2023/04/02 11:02:43;;;;;;;6.63;3.17;;;;;;;6.03;80.07;102296.38;4953114;29;20394;-88
2023/04/02 11:05:35;;;;;;;6.47;3.53;;;;;;;6.13;81.11;102305.56;4915542;29;20055;-84
2023/04/02 11:08:06;;;;;;;6.53;3.30;;;;;;;5.94;80.17;102276.03;4915109;28;20096;-88
2023/04/02 11:10:37;;;;;;;6.47;3.80;;;;;;;6.17;79.55;102309.72;4915109;29;20044;-87
2023/04/02 11:13:34;;;;;;;5.82;2.63;;;;;;;6.38;81.46;102318.69;4914903;29;20028;-86
2023/04/02 11:15:59;;;;;;;5.97;2.83;;;;;;;6.33;77.54;102323.09;4915055;29;20048;-86
2023/04/02 11:18:35;;;;;;;7.68;3.05;;;;;;;6.18;77.31;102311.41;4914858;29;20051;-89
2023/04/02 11:21:03;;;;;;;5.97;3.08;;;;;;;6.15;77.81;102332.00;4914720;29;20502;-89
2023/04/02 11:23:31;;;;;;;5.93;3.10;;;;;;;5.87;77.43;102294.94;4914945;29;20542;-87
2023/04/02 11:26:30;;;;;;;5.68;3.15;;;;;;;6.27;77.76;102347.16;4914805;29;20084;-88
2023/04/02 11:29:14;;;;;;;6.00;2.90;;;;;;;6.07;77.85;102327.91;4968677;28;20046;-88
2023/04/02 11:31:40;;;;;;;8.73;3.03;;;;;;;6.23;78.84;102340.41;4972029;28;20392;-76
2023/04/02 11:34:12;;;;;;;6.90;2.70;;;;;;;6.06;76.89;102332.19;4957134;28;20090;-78
2023/04/02 11:36:49;;;;;;;6.22;2.63;;;;;;;6.24;78.65;102362.59;4952736;29;20106;-77
2023/04/02 11:39:45;;;;;;;7.03;2.97;;;;;;;6.11;77.73;102357.75;4952836;29;20036;-82
2023/04/02 11:42:32;;;;;;;7.13;3.03;;;;;;;6.15;78.54;102365.34;4983379;28;20488;-77
2023/04/02 11:45:17;;;;;;;5.45;2.85;;;;;;;5.72;78.20;102302.06;5013066;28;20036;-77
2023/04/02 11:48:14;;;;;;;7.55;2.92;;;;;;;6.30;76.71;102400.13;5012237;28;20471;-78
2023/04/02 11:50:42;;;;;;;7.07;2.80;;;;;;;6.19;76.99;102378.94;5012899;28;20026;-78
2023/04/02 11:53:10;;;;;;;5.40;2.90;;;;;;;6.32;78.76;102382.97;5013141;28;20038;-78
2023/04/02 11:55:38;;;;;;;5.80;2.70;;;;;;;6.42;77.74;102368.25;5013313;28;20118;-79
2023/04/02 11:58:41;;;;;;;4.82;2.40;;;;;;;6.67;76.55;102387.34;5011710;28;20026;-78
2023/04/02 12:01:24;;;;;;;5.28;2.50;;;;;;;6.54;76.77;102391.06;5013015;28;20030;-78
2023/04/02 12:04:16;;;;;;;4.72;2.83;;;;;;;6.41;77.05;102394.78;5012647;28;20033;-79